Vick, Louisiana
Current Conditions -  °F | °C
As of 5:53 PM on Thursday 18 Dec 2014 (Local Time) from KESF Reporting Station
Overcast Overcast  
Wind Chill: 53°   Ceiling: 900
Heat Index: 53°   Visibility: 10mi
Dew Point: 49°   Wind: 3mph
Humidity: 86%   Direction: 70°ENE
Pressure: 30.12"   Gusts: NA
Location:  31.269°N, 92.0664°W
Report Text: KESF 182353Z AUTO 07003KT 10SM OVC009 12/09 A3012 RMK AO2 SLP200 T01170094 10117 20106 52004
Loading
Personal Weather Stations






























Interactive Weather Map New forecast layout! Learn more

10-Day Weather Forecast

Advertisements
Track Severe Weather on mobile